createdAt,value
2024-04-12T00:02:31.902Z,1.00
2024-04-12T00:05:21.905Z,0.88
2024-04-12T00:08:09.342Z,0.90
2024-04-12T00:11:09.270Z,0.85
2024-04-12T00:13:56.892Z,0.68
2024-04-12T00:16:54.174Z,0.68
2024-04-12T00:19:41.681Z,0.67
2024-04-12T00:22:31.562Z,0.70
2024-04-12T00:25:18.964Z,0.60
2024-04-12T00:28:07.050Z,0.65
2024-04-12T00:31:00.861Z,0.80
2024-04-12T00:33:50.279Z,0.63
2024-04-12T00:36:37.315Z,0.60
2024-04-12T00:39:37.045Z,0.80
2024-04-12T00:42:29.921Z,1.10
2024-04-12T00:45:27.939Z,0.85
2024-04-12T00:48:19.383Z,1.00
2024-04-12T00:51:06.439Z,0.77
2024-04-12T00:53:58.413Z,0.70
2024-04-12T00:56:48.502Z,0.90
2024-04-12T00:59:36.501Z,0.90
2024-04-12T01:02:23.915Z,0.73
2024-04-12T01:05:15.822Z,1.00
2024-04-12T01:08:03.120Z,0.60
2024-04-12T01:10:50.797Z,0.75
2024-04-12T01:16:25.024Z,0.80
2024-04-12T01:19:13.762Z,0.80
2024-04-12T01:22:01.548Z,0.80
2024-04-12T01:27:39.581Z,0.70
2024-04-12T01:30:26.691Z,0.90
2024-04-12T01:33:14.678Z,0.88
2024-04-12T01:36:12.324Z,1.00
2024-04-12T01:38:59.447Z,0.80
2024-04-12T01:41:46.537Z,0.80
2024-04-12T01:44:33.537Z,0.65
2024-04-12T01:47:21.477Z,0.70
2024-04-12T01:50:08.487Z,0.70
2024-04-12T01:52:56.415Z,0.90
2024-04-12T01:55:47.251Z,0.70
2024-04-12T01:58:35.574Z,0.40
2024-04-12T02:01:27.354Z,0.70
2024-04-12T02:04:22.415Z,0.77
2024-04-12T02:07:13.141Z,1.02
2024-04-12T02:10:09.204Z,0.80
2024-04-12T02:12:56.408Z,1.10
2024-04-12T02:15:43.331Z,0.93
2024-04-12T02:18:34.960Z,0.80
2024-04-12T02:21:23.165Z,0.80
2024-04-12T02:24:10.486Z,0.80
2024-04-12T02:26:58.388Z,0.93
2024-04-12T02:29:45.380Z,0.82
2024-04-12T02:32:32.377Z,0.95
2024-04-12T02:35:22.984Z,0.70
2024-04-12T02:38:21.597Z,0.95
2024-04-12T02:41:15.725Z,1.00
2024-04-12T02:44:05.408Z,0.98
2024-04-12T02:46:52.399Z,0.93
2024-04-12T02:49:41.496Z,1.13
2024-04-12T02:52:28.488Z,1.00
2024-04-12T02:55:15.425Z,1.08
2024-04-12T02:58:02.369Z,0.80
2024-04-12T03:00:49.360Z,0.70
2024-04-12T03:03:43.006Z,0.85
2024-04-12T03:06:34.701Z,0.90
2024-04-12T03:09:21.937Z,0.80
2024-04-12T03:12:13.827Z,0.70
2024-04-12T03:15:05.549Z,0.75
2024-04-12T03:17:53.529Z,0.80
2024-04-12T03:20:41.290Z,0.70
2024-04-12T03:26:20.075Z,0.80
2024-04-12T03:29:07.589Z,0.90
2024-04-12T03:31:54.693Z,0.90
2024-04-12T03:34:41.676Z,0.80
2024-04-12T03:37:51.557Z,0.90
2024-04-12T03:40:39.692Z,0.85
2024-04-12T03:43:28.749Z,0.90
2024-04-12T03:46:16.007Z,1.30
2024-04-12T03:49:04.477Z,1.30
2024-04-12T03:51:55.785Z,1.10
2024-04-12T03:54:43.636Z,1.00
2024-04-12T04:00:17.977Z,0.93
2024-04-12T04:03:10.704Z,0.90
2024-04-12T04:06:07.464Z,0.70
2024-04-12T04:08:55.270Z,1.20
2024-04-12T04:14:34.115Z,0.70
2024-04-12T04:17:32.159Z,0.82
2024-04-12T04:20:20.408Z,0.90
2024-04-12T04:23:07.444Z,0.98
2024-04-12T04:25:56.688Z,1.05
2024-04-12T04:28:44.694Z,1.10
2024-04-12T04:34:31.567Z,0.80
2024-04-12T04:37:23.421Z,0.70
2024-04-12T04:40:20.712Z,0.90
2024-04-12T04:43:09.766Z,0.90
2024-04-12T04:46:00.532Z,0.77
2024-04-12T04:48:47.628Z,0.82
2024-04-12T04:51:37.267Z,1.00
2024-04-12T04:54:24.428Z,0.65
2024-04-12T04:57:11.750Z,0.95
2024-04-12T05:00:07.930Z,1.20
2024-04-12T05:02:56.772Z,1.10
2024-04-12T05:05:44.160Z,1.10
2024-04-12T05:08:36.866Z,1.10
2024-04-12T05:11:30.470Z,1.27
2024-04-12T05:14:36.698Z,1.60
2024-04-12T05:17:23.846Z,1.80
2024-04-12T05:20:20.637Z,7.18
2024-04-12T05:23:19.660Z,11.35
2024-04-12T05:26:08.190Z,9.13
2024-04-12T05:28:57.756Z,7.78
2024-04-12T05:31:46.242Z,6.45
2024-04-12T05:34:36.115Z,6.75
2024-04-12T05:37:23.083Z,9.05
2024-04-12T05:40:14.233Z,9.90
2024-04-12T05:43:01.413Z,10.00
2024-04-12T05:45:51.051Z,9.40
2024-04-12T05:48:38.602Z,9.30
2024-04-12T05:54:16.847Z,5.07
2024-04-12T05:57:05.022Z,3.90
2024-04-12T05:59:55.626Z,3.65
2024-04-12T06:02:45.332Z,2.70
2024-04-12T06:05:34.934Z,2.20
2024-04-12T06:08:23.774Z,2.00
2024-04-12T06:11:10.841Z,1.80
2024-04-12T06:14:03.143Z,1.95
2024-04-12T06:16:57.857Z,2.78
2024-04-12T06:19:44.909Z,3.17
2024-04-12T06:22:32.867Z,4.93
2024-04-12T06:25:22.544Z,5.95
2024-04-12T06:28:13.476Z,8.40
2024-04-12T06:31:01.317Z,9.20
2024-04-12T06:33:51.076Z,8.57
2024-04-12T06:36:46.486Z,6.18
2024-04-12T06:39:33.522Z,5.10
2024-04-12T06:42:21.610Z,4.30
2024-04-12T06:45:12.007Z,3.40
2024-04-12T06:47:59.347Z,3.03
2024-04-12T06:50:57.138Z,2.50
2024-04-12T06:53:47.411Z,2.30
2024-04-12T06:56:35.145Z,2.17
2024-04-12T06:59:27.601Z,1.92
2024-04-12T07:02:15.682Z,1.70
2024-04-12T07:05:06.532Z,1.40
2024-04-12T07:07:54.335Z,1.50
2024-04-12T07:10:41.430Z,1.35
2024-04-12T07:13:28.654Z,1.20
2024-04-12T07:16:17.424Z,1.45
2024-04-12T07:19:10.104Z,1.20
2024-04-12T07:21:57.123Z,1.30
2024-04-12T07:24:44.094Z,1.67
2024-04-12T07:27:31.053Z,1.50
2024-04-12T07:30:21.954Z,1.90
2024-04-12T07:33:13.371Z,1.50
2024-04-12T07:36:01.099Z,2.00
2024-04-12T07:41:45.460Z,2.20
2024-04-12T07:44:36.908Z,2.03
2024-04-12T07:47:31.107Z,2.13
2024-04-12T07:50:18.806Z,2.13
2024-04-12T07:53:33.143Z,2.20
2024-04-12T07:56:22.355Z,2.40
2024-04-12T07:59:17.494Z,2.10
2024-04-12T08:02:10.644Z,2.10
2024-04-12T08:04:58.985Z,2.00
2024-04-12T08:07:45.976Z,1.90
2024-04-12T08:10:42.827Z,2.22
2024-04-12T08:13:38.399Z,1.83
2024-04-12T08:16:25.354Z,1.70
2024-04-12T08:19:22.881Z,2.17
2024-04-12T08:22:19.505Z,1.70
2024-04-12T08:25:08.254Z,2.55
2024-04-12T08:27:56.055Z,2.55
2024-04-12T08:30:53.319Z,2.00
2024-04-12T08:33:46.873Z,2.40
2024-04-12T08:36:34.474Z,1.83
2024-04-12T08:39:27.428Z,1.90
2024-04-12T08:42:17.716Z,1.70
2024-04-12T08:45:30.644Z,4.10
2024-04-12T08:48:19.131Z,3.22
2024-04-12T08:51:10.275Z,2.85
2024-04-12T08:54:00.409Z,2.50
2024-04-12T08:56:48.445Z,1.70
2024-04-12T08:59:35.495Z,1.55
2024-04-12T09:02:24.134Z,2.30
2024-04-12T09:05:15.611Z,2.05
2024-04-12T09:08:08.103Z,2.70
2024-04-12T09:11:03.983Z,1.92
2024-04-12T09:13:53.562Z,1.38
2024-04-12T09:16:44.962Z,1.30
2024-04-12T09:19:32.778Z,0.90
2024-04-12T09:22:20.037Z,0.80
2024-04-12T09:25:16.138Z,1.17
2024-04-12T09:28:04.355Z,2.20
2024-04-12T09:31:09.735Z,1.50
2024-04-12T09:34:16.744Z,1.17
2024-04-12T09:37:26.167Z,1.85
2024-04-12T09:40:13.537Z,1.73
2024-04-12T09:43:00.752Z,1.15
2024-04-12T09:45:49.154Z,1.05
2024-04-12T09:48:55.323Z,0.70
2024-04-12T09:52:01.093Z,0.90
2024-04-12T09:55:06.797Z,0.98
2024-04-12T09:58:15.463Z,0.70
2024-04-12T10:01:24.582Z,0.98
2024-04-12T10:04:30.636Z,0.50
2024-04-12T10:07:43.402Z,1.80
2024-04-12T10:10:49.989Z,1.27
2024-04-12T10:13:57.547Z,1.17
2024-04-12T10:17:04.178Z,1.23
2024-04-12T10:20:15.005Z,0.90
2024-04-12T10:23:24.851Z,0.80
2024-04-12T10:26:30.327Z,1.90
2024-04-12T10:29:36.026Z,1.10
2024-04-12T10:32:46.146Z,0.90
2024-04-12T10:35:54.327Z,1.00
2024-04-12T10:38:46.911Z,1.00
2024-04-12T10:41:37.083Z,1.90
2024-04-12T10:44:25.657Z,1.90
2024-04-12T10:47:14.009Z,1.85
2024-04-12T10:50:03.444Z,2.30
2024-04-12T10:52:52.660Z,1.33
2024-04-12T10:55:39.863Z,1.75
2024-04-12T10:58:34.853Z,1.40
2024-04-12T11:01:25.118Z,1.20
2024-04-12T11:04:16.789Z,1.00
2024-04-12T11:07:04.135Z,1.00
2024-04-12T11:10:04.811Z,1.00
2024-04-12T11:13:07.818Z,1.00
2024-04-12T11:15:54.803Z,0.90
2024-04-12T11:19:00.376Z,1.10
2024-04-12T11:22:06.079Z,1.00
2024-04-12T11:25:22.211Z,0.80
2024-04-12T11:28:27.898Z,0.90
2024-04-12T11:31:17.909Z,0.90
2024-04-12T11:34:11.882Z,0.77
2024-04-12T11:37:07.478Z,0.90
2024-04-12T11:39:54.617Z,0.93
2024-04-12T11:42:41.630Z,0.90
2024-04-12T11:45:31.926Z,1.10
2024-04-12T11:48:19.190Z,0.70
2024-04-12T11:53:57.018Z,0.80
2024-04-12T11:59:34.063Z,0.88
2024-04-12T12:02:24.189Z,0.70
2024-04-12T12:05:18.756Z,0.60
2024-04-12T12:08:07.050Z,0.90
2024-04-12T12:10:54.088Z,0.90
2024-04-12T12:13:43.884Z,0.80
2024-04-12T12:16:34.435Z,0.70
2024-04-12T12:19:21.421Z,0.50
2024-04-12T12:22:11.693Z,0.60
2024-04-12T12:25:00.698Z,0.60
2024-04-12T12:27:51.199Z,1.00
2024-04-12T12:30:38.193Z,0.70
2024-04-12T12:36:13.310Z,0.65
2024-04-12T12:39:00.503Z,0.65
2024-04-12T12:41:47.814Z,0.80
2024-04-12T12:44:35.894Z,0.70
2024-04-12T12:47:23.069Z,0.80
2024-04-12T12:50:20.453Z,0.60
2024-04-12T12:53:10.916Z,0.50
2024-04-12T12:55:57.957Z,0.65
2024-04-12T12:58:44.950Z,0.60
2024-04-12T13:01:36.133Z,0.65
2024-04-12T13:04:23.279Z,0.60
2024-04-12T13:07:11.035Z,0.65
2024-04-12T13:09:58.075Z,0.65
2024-04-12T13:12:47.346Z,0.63
2024-04-12T13:15:34.716Z,0.75
2024-04-12T13:18:25.894Z,0.70
2024-04-12T13:21:14.204Z,0.70
2024-04-12T13:24:01.548Z,0.63
2024-04-12T13:26:52.067Z,0.80
2024-04-12T13:29:39.839Z,0.60
2024-04-12T13:32:27.082Z,0.80
2024-04-12T13:35:14.154Z,0.75
2024-04-12T13:40:50.916Z,0.75
2024-04-12T13:43:40.929Z,0.63
2024-04-12T13:46:47.347Z,0.68
2024-04-12T13:49:54.107Z,1.00
2024-04-12T13:52:41.075Z,0.80
2024-04-12T13:55:29.655Z,0.60
2024-04-12T13:58:16.877Z,0.60
2024-04-12T14:01:07.742Z,0.98
2024-04-12T14:03:58.873Z,0.63
2024-04-12T14:06:48.287Z,0.77
2024-04-12T14:09:35.344Z,0.70
2024-04-12T14:12:23.608Z,0.60
2024-04-12T14:18:02.065Z,0.50
2024-04-12T14:20:49.191Z,0.57
2024-04-12T14:23:36.218Z,0.77
2024-04-12T14:26:26.405Z,0.70
2024-04-12T14:29:15.730Z,0.70
2024-04-12T14:32:13.320Z,0.68
2024-04-12T14:35:09.827Z,0.90
2024-04-12T14:38:00.908Z,0.88
2024-04-12T14:40:53.392Z,0.60
2024-04-12T14:43:41.458Z,0.60
2024-04-12T14:46:30.470Z,0.80
2024-04-12T14:49:17.507Z,0.90
2024-04-12T14:52:12.931Z,0.80
2024-04-12T14:55:00.070Z,0.80
2024-04-12T14:57:51.900Z,0.75
2024-04-12T15:00:39.780Z,0.70
2024-04-12T15:03:46.354Z,0.80
2024-04-12T15:06:51.865Z,0.47
2024-04-12T15:09:57.390Z,0.60
2024-04-12T15:13:02.799Z,0.60
2024-04-12T15:16:08.227Z,0.95
2024-04-12T15:19:13.672Z,0.70
2024-04-12T15:22:19.214Z,0.70
2024-04-12T15:25:24.892Z,0.60
2024-04-12T15:28:30.312Z,0.70
2024-04-12T15:31:35.997Z,0.73
2024-04-12T15:34:42.868Z,0.60
2024-04-12T15:37:48.448Z,0.80
2024-04-12T15:40:53.790Z,0.90
2024-04-12T15:43:59.274Z,0.40
2024-04-12T15:47:01.359Z,0.50
2024-04-12T15:49:52.747Z,0.55
2024-04-12T15:52:41.654Z,0.57
2024-04-12T15:55:28.652Z,0.55
2024-04-12T15:58:33.978Z,0.60
2024-04-12T16:01:39.433Z,0.35
2024-04-12T16:04:49.435Z,0.60
2024-04-12T16:07:55.079Z,0.57
2024-04-12T16:10:49.724Z,0.80
2024-04-12T16:13:36.858Z,0.65
2024-04-12T16:16:23.859Z,0.50
2024-04-12T16:19:10.851Z,0.50
2024-04-12T16:21:57.935Z,0.50
2024-04-12T16:24:45.827Z,0.50
2024-04-12T16:27:32.796Z,0.47
2024-04-12T16:30:19.968Z,0.40
2024-04-12T16:33:07.161Z,0.40
2024-04-12T16:35:54.364Z,0.40
2024-04-12T16:38:41.376Z,0.50
2024-04-12T16:41:32.991Z,0.40
2024-04-12T16:44:19.910Z,0.68
2024-04-12T16:47:07.021Z,0.93
2024-04-12T16:49:53.997Z,0.75
2024-04-12T16:52:41.954Z,0.80
2024-04-12T16:55:29.633Z,0.70
2024-04-12T16:58:16.706Z,0.82
2024-04-12T17:01:07.873Z,1.13
2024-04-12T17:03:55.693Z,1.20
2024-04-12T17:06:42.818Z,1.10
2024-04-12T17:09:29.923Z,1.00
2024-04-12T17:12:16.978Z,0.90
2024-04-12T17:15:06.013Z,0.90
2024-04-12T17:17:53.246Z,0.80
2024-04-12T17:20:41.754Z,0.55
2024-04-12T17:23:29.339Z,0.57
2024-04-12T17:29:04.032Z,0.77
2024-04-12T17:31:52.693Z,0.57
2024-04-12T17:34:40.239Z,0.55
2024-04-12T17:40:16.124Z,0.60
2024-04-12T17:43:03.237Z,0.68
2024-04-12T17:45:50.221Z,0.63
2024-04-12T17:48:37.430Z,0.70
2024-04-12T17:51:25.431Z,0.65
2024-04-12T17:54:12.622Z,0.70
2024-04-12T17:56:59.639Z,0.47
2024-04-12T17:59:47.484Z,0.60
2024-04-12T18:02:34.520Z,0.60
2024-04-12T18:05:21.515Z,0.50
2024-04-12T18:08:08.487Z,0.50
2024-04-12T18:11:15.330Z,0.57
2024-04-12T18:14:02.479Z,0.70
2024-04-12T18:16:49.439Z,0.52
2024-04-12T18:19:39.775Z,0.65
2024-04-12T18:22:26.981Z,0.80
2024-04-12T18:25:14.062Z,0.70
2024-04-12T18:28:01.260Z,0.55
2024-04-12T18:30:48.277Z,0.70
2024-04-12T18:33:35.464Z,0.70
2024-04-12T18:36:23.181Z,0.68
2024-04-12T18:39:28.984Z,0.75
2024-04-12T18:42:34.398Z,0.70
2024-04-12T18:45:21.462Z,0.95
2024-04-12T18:48:08.708Z,0.60
2024-04-12T18:50:55.926Z,0.60
2024-04-12T18:53:43.033Z,0.88
2024-04-12T18:56:30.409Z,0.88
2024-04-12T18:59:17.433Z,1.40
2024-04-12T19:02:04.620Z,1.52
2024-04-12T19:04:51.635Z,1.77
2024-04-12T19:07:38.661Z,1.38
2024-04-12T19:10:25.666Z,1.70
2024-04-12T19:13:12.662Z,2.65
2024-04-12T19:15:59.983Z,3.90
2024-04-12T19:18:47.024Z,3.90
2024-04-12T19:21:34.076Z,2.80
2024-04-12T19:24:21.225Z,2.10
2024-04-12T19:27:08.384Z,1.60
2024-04-12T19:29:55.792Z,1.60
2024-04-12T19:32:42.858Z,1.30
2024-04-12T19:35:29.996Z,1.70
2024-04-12T19:38:19.243Z,1.60
2024-04-12T19:41:07.411Z,1.45
2024-04-12T19:43:54.561Z,1.23
2024-04-12T19:46:41.546Z,1.40
2024-04-12T19:49:29.461Z,1.50
2024-04-12T19:52:16.492Z,0.80
2024-04-12T19:55:04.176Z,0.80
2024-04-12T19:57:51.192Z,0.98
2024-04-12T20:00:41.421Z,0.82
2024-04-12T20:03:28.681Z,0.98
2024-04-12T20:06:15.768Z,0.90
2024-04-12T20:09:03.431Z,0.73
2024-04-12T20:11:50.991Z,0.88
2024-04-12T20:14:38.034Z,0.93
2024-04-12T20:17:25.301Z,1.05
2024-04-12T20:20:18.358Z,0.95
2024-04-12T20:23:07.124Z,0.80
2024-04-12T20:26:08.344Z,0.65
2024-04-12T20:28:55.934Z,0.80
2024-04-12T20:31:53.358Z,0.90
2024-04-12T20:34:49.010Z,0.80
2024-04-12T20:37:41.099Z,0.70
2024-04-12T20:40:28.769Z,0.80
2024-04-12T20:46:02.672Z,1.00
2024-04-12T20:48:50.918Z,1.20
2024-04-12T20:51:39.148Z,0.90
2024-04-12T20:54:26.178Z,0.70
2024-04-12T20:57:13.407Z,0.80
2024-04-12T21:00:01.148Z,1.10
2024-04-12T21:05:35.261Z,0.80
2024-04-12T21:08:22.221Z,0.90
2024-04-12T21:11:18.175Z,0.70
2024-04-12T21:14:09.667Z,1.10
2024-04-12T21:16:57.633Z,0.85
2024-04-12T21:19:44.603Z,0.82
2024-04-12T21:22:31.606Z,0.90
2024-04-12T21:25:18.657Z,0.90
2024-04-12T21:28:05.682Z,0.98
2024-04-12T21:30:52.832Z,0.90
2024-04-12T21:33:39.918Z,1.05
2024-04-12T21:36:27.209Z,0.90
2024-04-12T21:39:14.776Z,1.00
2024-04-12T21:42:01.906Z,1.05
2024-04-12T21:44:50.418Z,0.90
2024-04-12T21:47:37.548Z,0.70
2024-04-12T21:50:24.548Z,1.00
2024-04-12T21:53:11.473Z,0.80
2024-04-12T21:56:03.369Z,0.80
2024-04-12T21:58:51.070Z,1.08
2024-04-12T22:01:38.293Z,0.90
2024-04-12T22:04:27.679Z,0.90
2024-04-12T22:07:14.940Z,1.00
2024-04-12T22:10:02.509Z,1.00
2024-04-12T22:12:49.541Z,1.00
2024-04-12T22:15:36.514Z,1.00
2024-04-12T22:18:28.688Z,1.20
2024-04-12T22:21:20.700Z,0.90
2024-04-12T22:24:08.268Z,1.05
2024-04-12T22:26:55.304Z,0.90
2024-04-12T22:29:42.266Z,0.90
2024-04-12T22:32:29.376Z,0.90
2024-04-12T22:35:16.506Z,0.88
2024-04-12T22:38:03.590Z,1.10
2024-04-12T22:40:56.569Z,0.88
2024-04-12T22:43:45.350Z,1.00
2024-04-12T22:46:34.087Z,1.00
2024-04-12T22:49:22.201Z,0.93
2024-04-12T22:52:09.245Z,1.20
2024-04-12T22:54:56.240Z,1.50
2024-04-12T22:57:44.626Z,1.70
2024-04-12T23:00:31.738Z,1.58
2024-04-12T23:03:19.383Z,1.10
2024-04-12T23:06:08.496Z,1.30
2024-04-12T23:08:55.598Z,1.00
2024-04-12T23:11:42.597Z,1.10
2024-04-12T23:14:29.628Z,1.10
2024-04-12T23:17:16.676Z,1.10
2024-04-12T23:20:04.091Z,0.95
2024-04-12T23:22:51.006Z,1.20
2024-04-12T23:25:37.994Z,1.13
2024-04-12T23:28:25.047Z,0.95
2024-04-12T23:31:12.060Z,1.10
2024-04-12T23:33:59.011Z,1.17
2024-04-12T23:36:45.977Z,1.10
2024-04-12T23:39:33.137Z,1.10
2024-04-12T23:42:20.342Z,0.90
2024-04-12T23:45:07.510Z,0.80
2024-04-12T23:47:56.122Z,0.90
2024-04-12T23:50:43.079Z,1.08
2024-04-12T23:53:30.076Z,1.20
2024-04-12T23:56:17.093Z,1.02
2024-04-12T23:59:04.126Z,0.98
